sensor_id;sensor_type;location;lat;lon;timestamp;P1;durP1;ratioP1;P2;durP2;ratioP2
50249;SDS011;36133;42.522;27.456;2022-07-01T00:01:22;13.65;;;5.78;;
50249;SDS011;36133;42.522;27.456;2022-07-01T00:03:47;13.38;;;5.68;;
50249;SDS011;36133;42.522;27.456;2022-07-01T00:06:19;12.10;;;6.00;;
50249;SDS011;36133;42.522;27.456;2022-07-01T00:08:46;9.40;;;5.60;;
50249;SDS011;36133;42.522;27.456;2022-07-01T00:11:12;10.25;;;5.80;;
50249;SDS011;36133;42.522;27.456;2022-07-01T00:13:38;9.95;;;5.57;;
50249;SDS011;36133;42.522;27.456;2022-07-01T00:16:04;9.02;;;5.63;;
50249;SDS011;36133;42.522;27.456;2022-07-01T00:18:30;10.73;;;5.72;;
50249;SDS011;36133;42.522;27.456;2022-07-01T00:20:55;14.93;;;5.70;;
50249;SDS011;36133;42.522;27.456;2022-07-01T00:23:21;12.27;;;5.70;;
50249;SDS011;36133;42.522;27.456;2022-07-01T00:25:46;9.15;;;5.93;;
50249;SDS011;36133;42.522;27.456;2022-07-01T00:28:12;12.25;;;5.40;;
50249;SDS011;36133;42.522;27.456;2022-07-01T00:30:38;11.15;;;5.82;;
50249;SDS011;36133;42.522;27.456;2022-07-01T00:33:03;14.48;;;5.97;;
50249;SDS011;36133;42.522;27.456;2022-07-01T00:35:29;11.45;;;5.65;;
50249;SDS011;36133;42.522;27.456;2022-07-01T00:37:56;8.90;;;5.50;;
50249;SDS011;36133;42.522;27.456;2022-07-01T00:40:22;18.20;;;7.40;;
50249;SDS011;36133;42.522;27.456;2022-07-01T00:42:48;24.70;;;13.40;;
50249;SDS011;36133;42.522;27.456;2022-07-01T00:45:14;25.70;;;12.57;;
50249;SDS011;36133;42.522;27.456;2022-07-01T00:47:41;17.95;;;11.43;;
50249;SDS011;36133;42.522;27.456;2022-07-01T00:50:08;19.52;;;10.10;;
50249;SDS011;36133;42.522;27.456;2022-07-01T00:52:43;18.33;;;10.93;;
50249;SDS011;36133;42.522;27.456;2022-07-01T00:55:13;19.60;;;10.77;;
50249;SDS011;36133;42.522;27.456;2022-07-01T00:57:40;21.42;;;10.77;;
50249;SDS011;36133;42.522;27.456;2022-07-01T01:00:07;17.30;;;10.13;;
50249;SDS011;36133;42.522;27.456;2022-07-01T01:02:38;23.77;;;15.15;;
50249;SDS011;36133;42.522;27.456;2022-07-01T01:05:05;28.50;;;18.50;;
50249;SDS011;36133;42.522;27.456;2022-07-01T01:07:32;23.02;;;17.17;;
50249;SDS011;36133;42.522;27.456;2022-07-01T01:09:59;25.92;;;17.10;;
50249;SDS011;36133;42.522;27.456;2022-07-01T01:12:27;29.02;;;17.00;;
50249;SDS011;36133;42.522;27.456;2022-07-01T01:14:53;24.55;;;14.73;;
50249;SDS011;36133;42.522;27.456;2022-07-01T01:17:19;23.45;;;12.73;;
50249;SDS011;36133;42.522;27.456;2022-07-01T01:19:47;19.52;;;11.88;;
50249;SDS011;36133;42.522;27.456;2022-07-01T01:22:14;23.10;;;12.80;;
50249;SDS011;36133;42.522;27.456;2022-07-01T01:24:41;21.83;;;13.13;;
50249;SDS011;36133;42.522;27.456;2022-07-01T01:27:07;21.52;;;12.02;;
50249;SDS011;36133;42.522;27.456;2022-07-01T01:29:35;22.50;;;12.77;;
50249;SDS011;36133;42.522;27.456;2022-07-01T01:32:01;22.23;;;11.85;;
50249;SDS011;36133;42.522;27.456;2022-07-01T01:34:28;19.73;;;9.63;;
50249;SDS011;36133;42.522;27.456;2022-07-01T01:36:54;14.95;;;8.85;;
50249;SDS011;36133;42.522;27.456;2022-07-01T01:39:19;18.13;;;9.93;;
50249;SDS011;36133;42.522;27.456;2022-07-01T01:41:45;19.08;;;9.43;;
50249;SDS011;36133;42.522;27.456;2022-07-01T01:44:11;15.05;;;8.68;;
50249;SDS011;36133;42.522;27.456;2022-07-01T01:46:37;17.15;;;8.40;;
50249;SDS011;36133;42.522;27.456;2022-07-01T01:49:03;12.90;;;7.82;;
50249;SDS011;36133;42.522;27.456;2022-07-01T01:51:30;14.57;;;7.78;;
50249;SDS011;36133;42.522;27.456;2022-07-01T01:53:56;11.63;;;6.75;;
50249;SDS011;36133;42.522;27.456;2022-07-01T01:56:21;12.30;;;6.57;;
50249;SDS011;36133;42.522;27.456;2022-07-01T01:58:47;11.60;;;6.95;;
50249;SDS011;36133;42.522;27.456;2022-07-01T02:01:15;13.40;;;7.68;;
50249;SDS011;36133;42.522;27.456;2022-07-01T02:03:42;12.05;;;8.63;;
50249;SDS011;36133;42.522;27.456;2022-07-01T02:06:08;25.25;;;11.43;;
50249;SDS011;36133;42.522;27.456;2022-07-01T02:08:35;21.40;;;11.65;;
50249;SDS011;36133;42.522;27.456;2022-07-01T02:11:04;24.52;;;12.55;;
50249;SDS011;36133;42.522;27.456;2022-07-01T02:13:30;19.73;;;11.15;;
50249;SDS011;36133;42.522;27.456;2022-07-01T02:15:56;17.45;;;11.10;;
50249;SDS011;36133;42.522;27.456;2022-07-01T02:18:22;23.05;;;11.00;;
50249;SDS011;36133;42.522;27.456;2022-07-01T02:20:48;22.27;;;10.55;;
50249;SDS011;36133;42.522;27.456;2022-07-01T02:23:13;23.77;;;11.27;;
50249;SDS011;36133;42.522;27.456;2022-07-01T02:25:40;27.35;;;10.82;;
50249;SDS011;36133;42.522;27.456;2022-07-01T02:28:06;24.10;;;11.57;;
50249;SDS011;36133;42.522;27.456;2022-07-01T02:30:32;22.35;;;11.23;;
50249;SDS011;36133;42.522;27.456;2022-07-01T02:33:01;28.33;;;10.48;;
50249;SDS011;36133;42.522;27.456;2022-07-01T02:35:27;19.40;;;10.48;;
50249;SDS011;36133;42.522;27.456;2022-07-01T02:37:53;20.15;;;12.13;;
50249;SDS011;36133;42.522;27.456;2022-07-01T02:40:19;21.80;;;12.38;;
50249;SDS011;36133;42.522;27.456;2022-07-01T02:42:44;29.23;;;13.50;;
50249;SDS011;36133;42.522;27.456;2022-07-01T02:45:11;24.98;;;12.35;;
50249;SDS011;36133;42.522;27.456;2022-07-01T02:47:38;21.38;;;11.32;;
50249;SDS011;36133;42.522;27.456;2022-07-01T02:50:06;20.52;;;11.43;;
50249;SDS011;36133;42.522;27.456;2022-07-01T02:52:34;19.17;;;10.10;;
50249;SDS011;36133;42.522;27.456;2022-07-01T02:55:00;17.05;;;9.85;;
50249;SDS011;36133;42.522;27.456;2022-07-01T02:57:26;18.70;;;10.27;;
50249;SDS011;36133;42.522;27.456;2022-07-01T02:59:52;20.00;;;9.68;;
50249;SDS011;36133;42.522;27.456;2022-07-01T03:02:18;19.52;;;10.13;;
50249;SDS011;36133;42.522;27.456;2022-07-01T03:04:45;21.35;;;9.73;;
50249;SDS011;36133;42.522;27.456;2022-07-01T03:07:14;25.42;;;9.68;;
50249;SDS011;36133;42.522;27.456;2022-07-01T03:09:41;126.20;;;14.05;;
50249;SDS011;36133;42.522;27.456;2022-07-01T03:12:08;21.52;;;9.90;;
50249;SDS011;36133;42.522;27.456;2022-07-01T03:14:50;13.35;;;6.60;;
50249;SDS011;36133;42.522;27.456;2022-07-01T03:17:17;18.38;;;7.05;;
50249;SDS011;36133;42.522;27.456;2022-07-01T03:19:42;14.98;;;6.95;;
50249;SDS011;36133;42.522;27.456;2022-07-01T03:22:08;15.30;;;6.80;;
50249;SDS011;36133;42.522;27.456;2022-07-01T03:24:34;20.00;;;7.22;;
50249;SDS011;36133;42.522;27.456;2022-07-01T03:27:00;17.02;;;7.38;;
50249;SDS011;36133;42.522;27.456;2022-07-01T03:29:25;17.80;;;6.90;;
50249;SDS011;36133;42.522;27.456;2022-07-01T03:31:51;10.07;;;6.65;;
50249;SDS011;36133;42.522;27.456;2022-07-01T03:34:16;16.88;;;6.78;;
50249;SDS011;36133;42.522;27.456;2022-07-01T03:36:42;10.90;;;6.47;;
50249;SDS011;36133;42.522;27.456;2022-07-01T03:39:08;13.57;;;5.97;;
50249;SDS011;36133;42.522;27.456;2022-07-01T03:41:33;10.90;;;6.13;;
50249;SDS011;36133;42.522;27.456;2022-07-01T03:43:59;16.20;;;7.13;;
50249;SDS011;36133;42.522;27.456;2022-07-01T03:46:24;11.32;;;6.00;;
50249;SDS011;36133;42.522;27.456;2022-07-01T03:48:50;14.85;;;6.32;;
50249;SDS011;36133;42.522;27.456;2022-07-01T03:51:15;10.55;;;5.88;;
50249;SDS011;36133;42.522;27.456;2022-07-01T03:53:41;9.25;;;6.45;;
50249;SDS011;36133;42.522;27.456;2022-07-01T03:56:25;9.82;;;6.55;;
50249;SDS011;36133;42.522;27.456;2022-07-01T03:58:50;11.27;;;7.22;;
50249;SDS011;36133;42.522;27.456;2022-07-01T04:01:16;16.17;;;9.27;;
50249;SDS011;36133;42.522;27.456;2022-07-01T04:03:42;21.42;;;12.43;;
50249;SDS011;36133;42.522;27.456;2022-07-01T04:06:07;31.23;;;12.65;;
50249;SDS011;36133;42.522;27.456;2022-07-01T04:08:34;23.52;;;12.63;;
50249;SDS011;36133;42.522;27.456;2022-07-01T04:10:59;24.23;;;11.13;;
50249;SDS011;36133;42.522;27.456;2022-07-01T04:13:26;15.90;;;8.13;;
50249;SDS011;36133;42.522;27.456;2022-07-01T04:15:52;17.67;;;7.30;;
50249;SDS011;36133;42.522;27.456;2022-07-01T04:18:18;14.55;;;6.93;;
50249;SDS011;36133;42.522;27.456;2022-07-01T04:20:44;13.77;;;6.55;;
50249;SDS011;36133;42.522;27.456;2022-07-01T04:23:29;13.30;;;6.35;;
50249;SDS011;36133;42.522;27.456;2022-07-01T04:25:55;10.35;;;6.13;;
50249;SDS011;36133;42.522;27.456;2022-07-01T04:28:20;9.32;;;5.75;;
50249;SDS011;36133;42.522;27.456;2022-07-01T04:30:45;14.32;;;6.40;;
50249;SDS011;36133;42.522;27.456;2022-07-01T04:33:11;11.07;;;5.38;;
50249;SDS011;36133;42.522;27.456;2022-07-01T04:35:37;13.88;;;6.13;;
50249;SDS011;36133;42.522;27.456;2022-07-01T04:38:04;9.20;;;5.50;;
50249;SDS011;36133;42.522;27.456;2022-07-01T04:40:30;10.63;;;5.80;;
50249;SDS011;36133;42.522;27.456;2022-07-01T04:42:55;13.00;;;6.43;;
50249;SDS011;36133;42.522;27.456;2022-07-01T04:45:21;15.35;;;6.03;;
50249;SDS011;36133;42.522;27.456;2022-07-01T04:47:46;11.55;;;5.70;;
50249;SDS011;36133;42.522;27.456;2022-07-01T04:50:12;9.40;;;5.88;;
50249;SDS011;36133;42.522;27.456;2022-07-01T04:52:37;10.27;;;6.00;;
50249;SDS011;36133;42.522;27.456;2022-07-01T04:55:04;13.60;;;6.28;;
50249;SDS011;36133;42.522;27.456;2022-07-01T04:57:30;14.85;;;6.38;;
50249;SDS011;36133;42.522;27.456;2022-07-01T04:59:55;10.00;;;6.45;;
50249;SDS011;36133;42.522;27.456;2022-07-01T05:02:21;12.38;;;6.90;;
50249;SDS011;36133;42.522;27.456;2022-07-01T05:04:46;10.25;;;6.70;;
50249;SDS011;36133;42.522;27.456;2022-07-01T05:07:12;11.60;;;5.88;;
50249;SDS011;36133;42.522;27.456;2022-07-01T05:09:53;9.60;;;5.70;;
50249;SDS011;36133;42.522;27.456;2022-07-01T05:12:23;11.38;;;6.45;;
50249;SDS011;36133;42.522;27.456;2022-07-01T05:14:49;9.57;;;5.32;;
50249;SDS011;36133;42.522;27.456;2022-07-01T05:17:15;13.35;;;5.40;;
50249;SDS011;36133;42.522;27.456;2022-07-01T05:19:40;12.43;;;5.53;;
50249;SDS011;36133;42.522;27.456;2022-07-01T05:22:24;9.13;;;4.72;;
50249;SDS011;36133;42.522;27.456;2022-07-01T05:24:50;7.47;;;4.32;;
50249;SDS011;36133;42.522;27.456;2022-07-01T05:27:15;10.55;;;4.15;;
50249;SDS011;36133;42.522;27.456;2022-07-01T05:29:41;8.98;;;3.90;;
50249;SDS011;36133;42.522;27.456;2022-07-01T05:32:06;15.40;;;3.97;;
50249;SDS011;36133;42.522;27.456;2022-07-01T05:34:32;11.45;;;4.43;;
50249;SDS011;36133;42.522;27.456;2022-07-01T05:36:58;7.70;;;3.90;;
50249;SDS011;36133;42.522;27.456;2022-07-01T05:39:24;17.77;;;6.32;;
50249;SDS011;36133;42.522;27.456;2022-07-01T05:41:50;15.27;;;7.10;;
50249;SDS011;36133;42.522;27.456;2022-07-01T05:44:15;18.75;;;9.93;;
50249;SDS011;36133;42.522;27.456;2022-07-01T05:46:41;16.95;;;8.93;;
50249;SDS011;36133;42.522;27.456;2022-07-01T05:49:07;14.65;;;7.47;;
50249;SDS011;36133;42.522;27.456;2022-07-01T05:51:33;18.77;;;9.20;;
50249;SDS011;36133;42.522;27.456;2022-07-01T05:53:58;30.27;;;21.98;;
50249;SDS011;36133;42.522;27.456;2022-07-01T05:56:24;18.55;;;8.07;;
50249;SDS011;36133;42.522;27.456;2022-07-01T05:58:50;9.20;;;5.28;;
50249;SDS011;36133;42.522;27.456;2022-07-01T06:01:16;15.98;;;4.65;;
50249;SDS011;36133;42.522;27.456;2022-07-01T06:03:42;14.90;;;5.03;;
50249;SDS011;36133;42.522;27.456;2022-07-01T06:06:10;14.90;;;4.85;;
50249;SDS011;36133;42.522;27.456;2022-07-01T06:08:38;15.13;;;4.90;;
50249;SDS011;36133;42.522;27.456;2022-07-01T06:11:04;11.55;;;6.15;;
50249;SDS011;36133;42.522;27.456;2022-07-01T06:13:30;15.80;;;7.30;;
50249;SDS011;36133;42.522;27.456;2022-07-01T06:15:56;20.80;;;8.63;;
50249;SDS011;36133;42.522;27.456;2022-07-01T06:18:23;18.33;;;8.13;;
50249;SDS011;36133;42.522;27.456;2022-07-01T06:20:49;20.33;;;8.48;;
50249;SDS011;36133;42.522;27.456;2022-07-01T06:23:25;20.92;;;5.93;;
50249;SDS011;36133;42.522;27.456;2022-07-01T06:25:50;18.45;;;5.72;;
50249;SDS011;36133;42.522;27.456;2022-07-01T06:28:16;20.63;;;8.45;;
50249;SDS011;36133;42.522;27.456;2022-07-01T06:30:42;24.90;;;7.75;;
50249;SDS011;36133;42.522;27.456;2022-07-01T06:33:08;26.35;;;6.35;;
50249;SDS011;36133;42.522;27.456;2022-07-01T06:35:37;15.23;;;4.78;;
50249;SDS011;36133;42.522;27.456;2022-07-01T06:38:03;24.30;;;4.90;;
50249;SDS011;36133;42.522;27.456;2022-07-01T06:40:29;22.23;;;5.35;;
50249;SDS011;36133;42.522;27.456;2022-07-01T06:42:54;15.50;;;4.43;;
50249;SDS011;36133;42.522;27.456;2022-07-01T06:45:20;14.88;;;5.15;;
50249;SDS011;36133;42.522;27.456;2022-07-01T06:47:46;10.88;;;3.90;;
50249;SDS011;36133;42.522;27.456;2022-07-01T06:50:15;21.25;;;4.70;;
50249;SDS011;36133;42.522;27.456;2022-07-01T06:52:40;9.95;;;3.90;;
50249;SDS011;36133;42.522;27.456;2022-07-01T06:55:06;15.50;;;4.32;;
50249;SDS011;36133;42.522;27.456;2022-07-01T06:57:32;7.72;;;3.53;;
50249;SDS011;36133;42.522;27.456;2022-07-01T06:59:58;15.10;;;4.53;;
50249;SDS011;36133;42.522;27.456;2022-07-01T07:02:24;15.98;;;5.03;;
50249;SDS011;36133;42.522;27.456;2022-07-01T07:04:49;11.57;;;4.57;;
50249;SDS011;36133;42.522;27.456;2022-07-01T07:07:15;17.75;;;7.60;;
50249;SDS011;36133;42.522;27.456;2022-07-01T07:09:42;13.40;;;8.65;;
50249;SDS011;36133;42.522;27.456;2022-07-01T07:12:08;16.17;;;8.02;;
50249;SDS011;36133;42.522;27.456;2022-07-01T07:14:34;18.15;;;7.75;;
50249;SDS011;36133;42.522;27.456;2022-07-01T07:16:59;12.70;;;4.53;;
50249;SDS011;36133;42.522;27.456;2022-07-01T07:19:25;18.67;;;5.57;;
50249;SDS011;36133;42.522;27.456;2022-07-01T07:21:51;14.68;;;6.72;;
50249;SDS011;36133;42.522;27.456;2022-07-01T07:24:17;11.35;;;7.10;;
50249;SDS011;36133;42.522;27.456;2022-07-01T07:26:42;18.42;;;6.28;;
50249;SDS011;36133;42.522;27.456;2022-07-01T07:29:10;15.23;;;5.47;;
50249;SDS011;36133;42.522;27.456;2022-07-01T07:31:36;11.13;;;5.57;;
50249;SDS011;36133;42.522;27.456;2022-07-01T07:34:02;16.35;;;7.05;;
50249;SDS011;36133;42.522;27.456;2022-07-01T07:36:28;15.43;;;6.70;;
50249;SDS011;36133;42.522;27.456;2022-07-01T07:38:53;14.07;;;7.40;;
50249;SDS011;36133;42.522;27.456;2022-07-01T07:41:19;15.40;;;7.18;;
50249;SDS011;36133;42.522;27.456;2022-07-01T07:43:45;18.65;;;7.05;;
50249;SDS011;36133;42.522;27.456;2022-07-01T07:46:14;13.77;;;7.43;;
50249;SDS011;36133;42.522;27.456;2022-07-01T07:48:40;20.42;;;6.85;;
50249;SDS011;36133;42.522;27.456;2022-07-01T07:51:11;11.40;;;5.70;;
50249;SDS011;36133;42.522;27.456;2022-07-01T07:53:40;12.32;;;6.70;;
50249;SDS011;36133;42.522;27.456;2022-07-01T07:56:12;15.52;;;5.90;;
50249;SDS011;36133;42.522;27.456;2022-07-01T07:58:41;18.20;;;6.00;;
50249;SDS011;36133;42.522;27.456;2022-07-01T08:01:08;9.27;;;5.57;;
50249;SDS011;36133;42.522;27.456;2022-07-01T08:03:37;12.95;;;5.25;;
50249;SDS011;36133;42.522;27.456;2022-07-01T08:06:03;9.77;;;4.80;;
50249;SDS011;36133;42.522;27.456;2022-07-01T08:08:28;13.00;;;4.93;;
50249;SDS011;36133;42.522;27.456;2022-07-01T08:10:54;13.77;;;5.45;;
50249;SDS011;36133;42.522;27.456;2022-07-01T08:13:20;19.65;;;4.70;;
50249;SDS011;36133;42.522;27.456;2022-07-01T08:15:46;11.40;;;4.53;;
50249;SDS011;36133;42.522;27.456;2022-07-01T08:18:11;13.13;;;4.63;;
50249;SDS011;36133;42.522;27.456;2022-07-01T08:20:39;12.27;;;4.00;;
50249;SDS011;36133;42.522;27.456;2022-07-01T08:23:05;11.98;;;4.18;;
50249;SDS011;36133;42.522;27.456;2022-07-01T08:25:30;11.40;;;4.35;;
50249;SDS011;36133;42.522;27.456;2022-07-01T08:27:56;9.95;;;4.15;;
50249;SDS011;36133;42.522;27.456;2022-07-01T08:30:22;12.15;;;4.60;;
50249;SDS011;36133;42.522;27.456;2022-07-01T08:32:47;14.57;;;4.25;;
50249;SDS011;36133;42.522;27.456;2022-07-01T08:35:13;9.50;;;4.35;;
50249;SDS011;36133;42.522;27.456;2022-07-01T08:37:39;9.50;;;3.85;;
50249;SDS011;36133;42.522;27.456;2022-07-01T08:40:05;13.60;;;4.45;;
50249;SDS011;36133;42.522;27.456;2022-07-01T08:42:31;14.13;;;3.72;;
50249;SDS011;36133;42.522;27.456;2022-07-01T08:45:02;15.18;;;4.32;;
50249;SDS011;36133;42.522;27.456;2022-07-01T08:47:28;13.25;;;4.13;;
50249;SDS011;36133;42.522;27.456;2022-07-01T08:49:54;12.02;;;2.92;;
50249;SDS011;36133;42.522;27.456;2022-07-01T08:52:27;12.95;;;3.63;;
50249;SDS011;36133;42.522;27.456;2022-07-01T08:54:54;11.75;;;3.83;;
50249;SDS011;36133;42.522;27.456;2022-07-01T08:57:24;7.30;;;2.88;;
50249;SDS011;36133;42.522;27.456;2022-07-01T09:00:06;8.27;;;3.03;;
50249;SDS011;36133;42.522;27.456;2022-07-01T09:05:15;11.60;;;2.50;;
50249;SDS011;36133;42.522;27.456;2022-07-01T09:08:00;7.10;;;2.65;;
50249;SDS011;36133;42.522;27.456;2022-07-01T09:10:30;8.13;;;2.30;;
50249;SDS011;36133;42.522;27.456;2022-07-01T09:13:06;3.88;;;1.77;;
50249;SDS011;36133;42.522;27.456;2022-07-01T09:15:33;5.07;;;2.08;;
50249;SDS011;36133;42.522;27.456;2022-07-01T09:18:04;4.80;;;1.90;;
50249;SDS011;36133;42.522;27.456;2022-07-01T09:20:35;7.15;;;2.20;;
50249;SDS011;36133;42.522;27.456;2022-07-01T09:23:03;13.90;;;2.30;;
50249;SDS011;36133;42.522;27.456;2022-07-01T09:25:35;7.20;;;2.03;;
50249;SDS011;36133;42.522;27.456;2022-07-01T09:28:09;8.77;;;2.33;;
50249;SDS011;36133;42.522;27.456;2022-07-01T09:30:43;6.75;;;2.00;;
50249;SDS011;36133;42.522;27.456;2022-07-01T09:33:17;6.25;;;1.70;;
50249;SDS011;36133;42.522;27.456;2022-07-01T09:35:52;4.97;;;1.73;;
50249;SDS011;36133;42.522;27.456;2022-07-01T09:38:25;5.10;;;2.10;;
50249;SDS011;36133;42.522;27.456;2022-07-01T09:40:55;9.60;;;2.30;;
50249;SDS011;36133;42.522;27.456;2022-07-01T09:43:32;18.55;;;2.20;;
50249;SDS011;36133;42.522;27.456;2022-07-01T09:46:00;7.10;;;1.90;;
50249;SDS011;36133;42.522;27.456;2022-07-01T09:51:01;7.60;;;1.90;;
50249;SDS011;36133;42.522;27.456;2022-07-01T09:53:28;6.00;;;2.05;;
50249;SDS011;36133;42.522;27.456;2022-07-01T09:55:54;4.50;;;1.90;;
50249;SDS011;36133;42.522;27.456;2022-07-01T09:58:20;11.20;;;1.55;;
50249;SDS011;36133;42.522;27.456;2022-07-01T10:00:51;5.72;;;2.15;;
50249;SDS011;36133;42.522;27.456;2022-07-01T10:03:18;6.40;;;1.60;;
50249;SDS011;36133;42.522;27.456;2022-07-01T10:10:57;5.07;;;1.60;;
50249;SDS011;36133;42.522;27.456;2022-07-01T10:13:38;8.32;;;2.28;;
50249;SDS011;36133;42.522;27.456;2022-07-01T10:16:07;4.47;;;1.73;;
50249;SDS011;36133;42.522;27.456;2022-07-01T10:18:34;6.13;;;1.70;;
50249;SDS011;36133;42.522;27.456;2022-07-01T10:21:00;6.95;;;1.70;;
50249;SDS011;36133;42.522;27.456;2022-07-01T10:23:29;10.45;;;1.63;;
50249;SDS011;36133;42.522;27.456;2022-07-01T10:26:03;9.80;;;1.77;;
50249;SDS011;36133;42.522;27.456;2022-07-01T10:31:17;11.20;;;1.92;;
50249;SDS011;36133;42.522;27.456;2022-07-01T10:44:18;6.35;;;1.70;;
50249;SDS011;36133;42.522;27.456;2022-07-01T10:46:46;5.40;;;1.35;;
50249;SDS011;36133;42.522;27.456;2022-07-01T10:57:19;5.43;;;1.60;;
50249;SDS011;36133;42.522;27.456;2022-07-01T10:59:58;8.68;;;1.50;;
50249;SDS011;36133;42.522;27.456;2022-07-01T11:02:41;7.53;;;1.60;;
50249;SDS011;36133;42.522;27.456;2022-07-01T11:05:13;7.13;;;1.58;;
50249;SDS011;36133;42.522;27.456;2022-07-01T11:07:41;9.00;;;2.03;;
50249;SDS011;36133;42.522;27.456;2022-07-01T11:10:11;7.53;;;1.70;;
50249;SDS011;36133;42.522;27.456;2022-07-01T11:12:42;8.15;;;1.77;;
50249;SDS011;36133;42.522;27.456;2022-07-01T11:15:14;7.55;;;1.50;;
50249;SDS011;36133;42.522;27.456;2022-07-01T11:17:47;4.55;;;1.80;;
50249;SDS011;36133;42.522;27.456;2022-07-01T11:20:21;3.95;;;1.48;;
50249;SDS011;36133;42.522;27.456;2022-07-01T11:22:48;4.40;;;1.60;;
50249;SDS011;36133;42.522;27.456;2022-07-01T11:25:14;8.35;;;1.90;;
50249;SDS011;36133;42.522;27.456;2022-07-01T11:27:46;10.38;;;1.98;;
50249;SDS011;36133;42.522;27.456;2022-07-01T11:30:14;6.53;;;2.30;;
50249;SDS011;36133;42.522;27.456;2022-07-01T11:35:32;6.55;;;2.00;;
50249;SDS011;36133;42.522;27.456;2022-07-01T11:38:18;5.22;;;1.70;;
50249;SDS011;36133;42.522;27.456;2022-07-01T11:41:09;3.25;;;1.50;;
50249;SDS011;36133;42.522;27.456;2022-07-01T11:43:48;11.05;;;1.92;;
50249;SDS011;36133;42.522;27.456;2022-07-01T11:46:16;4.88;;;1.88;;
50249;SDS011;36133;42.522;27.456;2022-07-01T11:48:44;9.93;;;2.05;;
50249;SDS011;36133;42.522;27.456;2022-07-01T11:51:24;4.70;;;1.73;;
50249;SDS011;36133;42.522;27.456;2022-07-01T11:53:55;9.88;;;1.92;;
50249;SDS011;36133;42.522;27.456;2022-07-01T11:56:32;10.27;;;2.17;;
50249;SDS011;36133;42.522;27.456;2022-07-01T11:58:59;9.18;;;1.92;;
50249;SDS011;36133;42.522;27.456;2022-07-01T12:04:03;5.57;;;2.25;;
50249;SDS011;36133;42.522;27.456;2022-07-01T12:06:30;8.82;;;2.00;;
50249;SDS011;36133;42.522;27.456;2022-07-01T12:08:57;4.80;;;1.90;;
50249;SDS011;36133;42.522;27.456;2022-07-01T12:11:24;7.85;;;2.33;;
50249;SDS011;36133;42.522;27.456;2022-07-01T12:13:52;8.05;;;2.00;;
50249;SDS011;36133;42.522;27.456;2022-07-01T12:16:24;6.28;;;2.28;;
50249;SDS011;36133;42.522;27.456;2022-07-01T12:18:54;6.68;;;1.85;;
50249;SDS011;36133;42.522;27.456;2022-07-01T12:21:22;8.63;;;1.70;;
50249;SDS011;36133;42.522;27.456;2022-07-01T12:24:05;6.70;;;1.60;;
50249;SDS011;36133;42.522;27.456;2022-07-01T12:26:31;8.00;;;1.90;;
50249;SDS011;36133;42.522;27.456;2022-07-01T12:28:57;6.68;;;2.10;;
50249;SDS011;36133;42.522;27.456;2022-07-01T12:31:23;8.20;;;2.05;;
50249;SDS011;36133;42.522;27.456;2022-07-01T12:33:49;8.20;;;2.22;;
50249;SDS011;36133;42.522;27.456;2022-07-01T12:36:16;5.65;;;1.80;;
50249;SDS011;36133;42.522;27.456;2022-07-01T12:38:42;11.75;;;2.50;;
50249;SDS011;36133;42.522;27.456;2022-07-01T12:44:00;11.18;;;2.60;;
50249;SDS011;36133;42.522;27.456;2022-07-01T12:46:30;7.75;;;2.67;;
50249;SDS011;36133;42.522;27.456;2022-07-01T12:48:57;4.45;;;2.15;;
50249;SDS011;36133;42.522;27.456;2022-07-01T12:51:30;7.70;;;2.78;;
50249;SDS011;36133;42.522;27.456;2022-07-01T12:53:57;11.73;;;3.08;;
50249;SDS011;36133;42.522;27.456;2022-07-01T12:56:24;8.90;;;2.70;;
50249;SDS011;36133;42.522;27.456;2022-07-01T12:58:51;5.43;;;2.65;;
50249;SDS011;36133;42.522;27.456;2022-07-01T13:01:18;8.82;;;2.70;;
50249;SDS011;36133;42.522;27.456;2022-07-01T13:03:48;5.95;;;3.10;;
50249;SDS011;36133;42.522;27.456;2022-07-01T13:06:14;4.65;;;2.58;;
50249;SDS011;36133;42.522;27.456;2022-07-01T13:08:39;6.70;;;2.95;;
50249;SDS011;36133;42.522;27.456;2022-07-01T13:11:05;7.65;;;2.92;;
50249;SDS011;36133;42.522;27.456;2022-07-01T13:13:31;6.90;;;2.90;;
50249;SDS011;36133;42.522;27.456;2022-07-01T13:15:58;7.35;;;3.20;;
50249;SDS011;36133;42.522;27.456;2022-07-01T13:18:27;6.75;;;2.70;;
50249;SDS011;36133;42.522;27.456;2022-07-01T13:20:58;7.38;;;3.45;;
50249;SDS011;36133;42.522;27.456;2022-07-01T13:23:27;5.80;;;2.78;;
50249;SDS011;36133;42.522;27.456;2022-07-01T13:25:53;10.32;;;3.47;;
50249;SDS011;36133;42.522;27.456;2022-07-01T13:28:18;13.18;;;3.50;;
50249;SDS011;36133;42.522;27.456;2022-07-01T13:30:44;6.95;;;2.80;;
50249;SDS011;36133;42.522;27.456;2022-07-01T13:33:10;4.18;;;2.72;;
50249;SDS011;36133;42.522;27.456;2022-07-01T13:35:35;7.00;;;3.08;;
50249;SDS011;36133;42.522;27.456;2022-07-01T13:38:01;16.23;;;3.75;;
50249;SDS011;36133;42.522;27.456;2022-07-01T13:40:26;20.33;;;4.70;;
50249;SDS011;36133;42.522;27.456;2022-07-01T13:42:52;6.05;;;3.10;;
50249;SDS011;36133;42.522;27.456;2022-07-01T13:45:18;10.75;;;3.75;;
50249;SDS011;36133;42.522;27.456;2022-07-01T13:47:43;6.80;;;3.55;;
50249;SDS011;36133;42.522;27.456;2022-07-01T13:50:09;7.07;;;3.50;;
50249;SDS011;36133;42.522;27.456;2022-07-01T13:52:35;9.82;;;3.30;;
50249;SDS011;36133;42.522;27.456;2022-07-01T13:55:02;9.50;;;3.72;;
50249;SDS011;36133;42.522;27.456;2022-07-01T13:57:34;10.20;;;3.22;;
50249;SDS011;36133;42.522;27.456;2022-07-01T14:00:00;6.22;;;3.05;;
50249;SDS011;36133;42.522;27.456;2022-07-01T14:02:26;7.07;;;3.55;;
50249;SDS011;36133;42.522;27.456;2022-07-01T14:04:51;13.48;;;3.80;;
50249;SDS011;36133;42.522;27.456;2022-07-01T14:07:23;6.22;;;3.25;;
50249;SDS011;36133;42.522;27.456;2022-07-01T14:09:48;7.07;;;3.10;;
50249;SDS011;36133;42.522;27.456;2022-07-01T14:12:14;6.97;;;3.30;;
50249;SDS011;36133;42.522;27.456;2022-07-01T14:14:41;7.45;;;3.72;;
50249;SDS011;36133;42.522;27.456;2022-07-01T14:17:07;7.30;;;3.45;;
50249;SDS011;36133;42.522;27.456;2022-07-01T14:19:33;8.27;;;3.80;;
50249;SDS011;36133;42.522;27.456;2022-07-01T14:21:58;7.15;;;3.28;;
50249;SDS011;36133;42.522;27.456;2022-07-01T14:24:25;5.75;;;3.13;;
50249;SDS011;36133;42.522;27.456;2022-07-01T14:26:50;6.63;;;3.35;;
50249;SDS011;36133;42.522;27.456;2022-07-01T14:29:24;4.70;;;3.25;;
50249;SDS011;36133;42.522;27.456;2022-07-01T14:31:49;11.75;;;3.67;;
50249;SDS011;36133;42.522;27.456;2022-07-01T14:34:18;7.95;;;2.90;;
50249;SDS011;36133;42.522;27.456;2022-07-01T14:36:50;8.60;;;3.85;;
50249;SDS011;36133;42.522;27.456;2022-07-01T14:39:16;6.78;;;3.33;;
50249;SDS011;36133;42.522;27.456;2022-07-01T14:41:42;10.55;;;3.60;;
50249;SDS011;36133;42.522;27.456;2022-07-01T14:44:07;10.55;;;3.83;;
50249;SDS011;36133;42.522;27.456;2022-07-01T14:46:33;5.82;;;3.42;;
50249;SDS011;36133;42.522;27.456;2022-07-01T14:49:01;7.40;;;3.70;;
50249;SDS011;36133;42.522;27.456;2022-07-01T14:51:27;11.38;;;4.43;;
50249;SDS011;36133;42.522;27.456;2022-07-01T14:54:01;8.35;;;3.75;;
50249;SDS011;36133;42.522;27.456;2022-07-01T14:56:27;8.52;;;3.55;;
50249;SDS011;36133;42.522;27.456;2022-07-01T14:58:52;8.90;;;3.65;;
50249;SDS011;36133;42.522;27.456;2022-07-01T15:01:18;7.47;;;3.72;;
50249;SDS011;36133;42.522;27.456;2022-07-01T15:03:44;11.23;;;3.80;;
50249;SDS011;36133;42.522;27.456;2022-07-01T15:06:10;9.68;;;3.65;;